sensor_id;sensor_type;location;lat;lon;timestamp;P1;durP1;ratioP1;P2;durP2;ratioP2
20894;SDS011;10607;42.066;24.742;2022-11-09T00:02:06;59.63;;;34.55;;
20894;SDS011;10607;42.066;24.742;2022-11-09T00:04:31;61.03;;;35.70;;
20894;SDS011;10607;42.066;24.742;2022-11-09T00:06:56;59.30;;;36.95;;
20894;SDS011;10607;42.066;24.742;2022-11-09T00:09:21;61.95;;;36.55;;
20894;SDS011;10607;42.066;24.742;2022-11-09T00:11:47;75.10;;;40.15;;
20894;SDS011;10607;42.066;24.742;2022-11-09T00:14:13;63.00;;;38.28;;
20894;SDS011;10607;42.066;24.742;2022-11-09T00:16:38;73.20;;;40.75;;
20894;SDS011;10607;42.066;24.742;2022-11-09T00:19:04;73.72;;;40.92;;
20894;SDS011;10607;42.066;24.742;2022-11-09T00:21:29;72.37;;;42.93;;
20894;SDS011;10607;42.066;24.742;2022-11-09T00:23:55;70.78;;;41.13;;
20894;SDS011;10607;42.066;24.742;2022-11-09T00:26:20;72.95;;;39.92;;
20894;SDS011;10607;42.066;24.742;2022-11-09T00:28:46;69.75;;;38.83;;
20894;SDS011;10607;42.066;24.742;2022-11-09T00:31:12;68.53;;;38.85;;
20894;SDS011;10607;42.066;24.742;2022-11-09T00:33:38;65.95;;;38.55;;
20894;SDS011;10607;42.066;24.742;2022-11-09T00:36:04;64.38;;;38.45;;
20894;SDS011;10607;42.066;24.742;2022-11-09T00:38:31;63.88;;;37.95;;
20894;SDS011;10607;42.066;24.742;2022-11-09T00:40:59;61.25;;;36.75;;
20894;SDS011;10607;42.066;24.742;2022-11-09T00:43:24;63.80;;;37.72;;
20894;SDS011;10607;42.066;24.742;2022-11-09T00:45:49;71.65;;;38.75;;
20894;SDS011;10607;42.066;24.742;2022-11-09T00:48:14;63.97;;;37.15;;
20894;SDS011;10607;42.066;24.742;2022-11-09T00:50:40;73.93;;;38.93;;
20894;SDS011;10607;42.066;24.742;2022-11-09T00:53:05;70.25;;;40.10;;
20894;SDS011;10607;42.066;24.742;2022-11-09T00:55:30;63.77;;;38.43;;
20894;SDS011;10607;42.066;24.742;2022-11-09T00:57:55;63.90;;;37.03;;
20894;SDS011;10607;42.066;24.742;2022-11-09T01:00:21;71.10;;;39.93;;
20894;SDS011;10607;42.066;24.742;2022-11-09T01:02:50;67.80;;;39.13;;
20894;SDS011;10607;42.066;24.742;2022-11-09T01:05:15;72.17;;;41.63;;
20894;SDS011;10607;42.066;24.742;2022-11-09T01:07:41;74.33;;;41.40;;
20894;SDS011;10607;42.066;24.742;2022-11-09T01:10:07;77.68;;;42.60;;
20894;SDS011;10607;42.066;24.742;2022-11-09T01:12:32;81.53;;;43.80;;
20894;SDS011;10607;42.066;24.742;2022-11-09T01:14:57;83.57;;;43.53;;
20894;SDS011;10607;42.066;24.742;2022-11-09T01:17:23;71.75;;;42.38;;
20894;SDS011;10607;42.066;24.742;2022-11-09T01:19:48;74.05;;;41.88;;
20894;SDS011;10607;42.066;24.742;2022-11-09T01:22:14;83.20;;;42.80;;
20894;SDS011;10607;42.066;24.742;2022-11-09T01:24:39;64.03;;;39.30;;
20894;SDS011;10607;42.066;24.742;2022-11-09T01:27:04;67.23;;;39.03;;
20894;SDS011;10607;42.066;24.742;2022-11-09T01:29:29;67.63;;;40.00;;
20894;SDS011;10607;42.066;24.742;2022-11-09T01:31:55;70.30;;;38.53;;
20894;SDS011;10607;42.066;24.742;2022-11-09T01:34:20;68.17;;;39.10;;
20894;SDS011;10607;42.066;24.742;2022-11-09T01:36:45;66.40;;;37.40;;
20894;SDS011;10607;42.066;24.742;2022-11-09T01:39:13;62.80;;;36.17;;
20894;SDS011;10607;42.066;24.742;2022-11-09T01:41:38;59.37;;;36.90;;
20894;SDS011;10607;42.066;24.742;2022-11-09T01:44:25;66.77;;;37.83;;
20894;SDS011;10607;42.066;24.742;2022-11-09T01:46:50;64.43;;;38.57;;
20894;SDS011;10607;42.066;24.742;2022-11-09T01:51:47;63.50;;;38.83;;
20894;SDS011;10607;42.066;24.742;2022-11-09T01:54:35;74.07;;;39.63;;
20894;SDS011;10607;42.066;24.742;2022-11-09T01:56:59;66.37;;;38.10;;
20894;SDS011;10607;42.066;24.742;2022-11-09T01:59:29;64.23;;;36.70;;
20894;SDS011;10607;42.066;24.742;2022-11-09T02:01:55;67.43;;;39.83;;
20894;SDS011;10607;42.066;24.742;2022-11-09T02:04:23;69.77;;;38.70;;
20894;SDS011;10607;42.066;24.742;2022-11-09T02:06:49;74.00;;;40.60;;
20894;SDS011;10607;42.066;24.742;2022-11-09T02:11:51;64.43;;;38.23;;
20894;SDS011;10607;42.066;24.742;2022-11-09T02:14:17;71.90;;;39.90;;
20894;SDS011;10607;42.066;24.742;2022-11-09T02:16:42;66.30;;;40.57;;
20894;SDS011;10607;42.066;24.742;2022-11-09T02:19:08;76.07;;;41.93;;
20894;SDS011;10607;42.066;24.742;2022-11-09T02:21:34;74.73;;;42.70;;
20894;SDS011;10607;42.066;24.742;2022-11-09T02:23:59;70.50;;;41.03;;
20894;SDS011;10607;42.066;24.742;2022-11-09T02:28:53;74.40;;;43.17;;
20894;SDS011;10607;42.066;24.742;2022-11-09T02:31:19;78.80;;;42.10;;
20894;SDS011;10607;42.066;24.742;2022-11-09T02:36:15;75.20;;;43.33;;
20894;SDS011;10607;42.066;24.742;2022-11-09T02:38:40;80.20;;;42.33;;
20894;SDS011;10607;42.066;24.742;2022-11-09T02:41:05;74.83;;;43.20;;
20894;SDS011;10607;42.066;24.742;2022-11-09T02:43:31;76.53;;;44.00;;
20894;SDS011;10607;42.066;24.742;2022-11-09T02:45:57;80.40;;;44.80;;
20894;SDS011;10607;42.066;24.742;2022-11-09T02:48:22;83.40;;;44.70;;
20894;SDS011;10607;42.066;24.742;2022-11-09T02:50:47;73.40;;;42.87;;
20894;SDS011;10607;42.066;24.742;2022-11-09T02:53:12;83.37;;;45.93;;
20894;SDS011;10607;42.066;24.742;2022-11-09T02:55:38;74.43;;;43.27;;
20894;SDS011;10607;42.066;24.742;2022-11-09T02:58:03;85.93;;;47.97;;
20894;SDS011;10607;42.066;24.742;2022-11-09T03:00:28;84.40;;;47.07;;
20894;SDS011;10607;42.066;24.742;2022-11-09T03:02:53;85.80;;;46.30;;
20894;SDS011;10607;42.066;24.742;2022-11-09T03:05:19;92.70;;;45.23;;
20894;SDS011;10607;42.066;24.742;2022-11-09T03:07:44;81.33;;;45.40;;
20894;SDS011;10607;42.066;24.742;2022-11-09T03:10:09;75.67;;;43.43;;
20894;SDS011;10607;42.066;24.742;2022-11-09T03:12:35;78.07;;;43.80;;
20894;SDS011;10607;42.066;24.742;2022-11-09T03:15:01;70.33;;;41.73;;
20894;SDS011;10607;42.066;24.742;2022-11-09T03:17:27;73.37;;;40.83;;
20894;SDS011;10607;42.066;24.742;2022-11-09T03:19:52;73.30;;;42.83;;
20894;SDS011;10607;42.066;24.742;2022-11-09T03:22:17;63.47;;;38.53;;
20894;SDS011;10607;42.066;24.742;2022-11-09T03:24:43;71.33;;;40.90;;
20894;SDS011;10607;42.066;24.742;2022-11-09T03:27:08;70.43;;;40.37;;
20894;SDS011;10607;42.066;24.742;2022-11-09T03:29:33;65.53;;;40.63;;
20894;SDS011;10607;42.066;24.742;2022-11-09T03:31:59;69.93;;;37.17;;
20894;SDS011;10607;42.066;24.742;2022-11-09T03:34:24;66.67;;;37.70;;
20894;SDS011;10607;42.066;24.742;2022-11-09T03:36:49;61.90;;;37.07;;
20894;SDS011;10607;42.066;24.742;2022-11-09T03:39:14;57.37;;;36.00;;
20894;SDS011;10607;42.066;24.742;2022-11-09T03:41:40;61.93;;;35.97;;
20894;SDS011;10607;42.066;24.742;2022-11-09T03:44:05;60.03;;;34.70;;
20894;SDS011;10607;42.066;24.742;2022-11-09T03:46:30;63.30;;;35.23;;
20894;SDS011;10607;42.066;24.742;2022-11-09T03:48:55;62.07;;;32.90;;
20894;SDS011;10607;42.066;24.742;2022-11-09T03:51:21;60.77;;;33.10;;
20894;SDS011;10607;42.066;24.742;2022-11-09T03:53:46;51.33;;;31.63;;
20894;SDS011;10607;42.066;24.742;2022-11-09T03:56:11;54.30;;;30.77;;
20894;SDS011;10607;42.066;24.742;2022-11-09T03:58:36;49.80;;;29.27;;
20894;SDS011;10607;42.066;24.742;2022-11-09T04:01:02;55.63;;;31.73;;
20894;SDS011;10607;42.066;24.742;2022-11-09T04:03:27;51.93;;;30.53;;
20894;SDS011;10607;42.066;24.742;2022-11-09T04:05:53;52.53;;;32.37;;
20894;SDS011;10607;42.066;24.742;2022-11-09T04:08:18;63.57;;;34.00;;
20894;SDS011;10607;42.066;24.742;2022-11-09T04:10:43;60.73;;;36.80;;
20894;SDS011;10607;42.066;24.742;2022-11-09T04:13:09;65.93;;;37.87;;
20894;SDS011;10607;42.066;24.742;2022-11-09T04:15:34;61.27;;;37.60;;
20894;SDS011;10607;42.066;24.742;2022-11-09T04:18:00;69.50;;;36.60;;
20894;SDS011;10607;42.066;24.742;2022-11-09T04:20:27;66.93;;;35.27;;
20894;SDS011;10607;42.066;24.742;2022-11-09T04:22:53;59.03;;;33.60;;
20894;SDS011;10607;42.066;24.742;2022-11-09T04:25:19;58.47;;;34.27;;
20894;SDS011;10607;42.066;24.742;2022-11-09T04:27:44;58.80;;;31.73;;
20894;SDS011;10607;42.066;24.742;2022-11-09T04:30:09;55.00;;;30.80;;
20894;SDS011;10607;42.066;24.742;2022-11-09T04:32:34;49.27;;;30.10;;
20894;SDS011;10607;42.066;24.742;2022-11-09T04:35:00;52.43;;;31.33;;
20894;SDS011;10607;42.066;24.742;2022-11-09T04:37:25;48.10;;;29.50;;
20894;SDS011;10607;42.066;24.742;2022-11-09T04:39:50;54.80;;;30.10;;
20894;SDS011;10607;42.066;24.742;2022-11-09T04:42:15;53.07;;;30.67;;
20894;SDS011;10607;42.066;24.742;2022-11-09T04:44:41;57.40;;;33.93;;
20894;SDS011;10607;42.066;24.742;2022-11-09T04:47:06;58.50;;;34.07;;
20894;SDS011;10607;42.066;24.742;2022-11-09T04:49:31;71.00;;;35.10;;
20894;SDS011;10607;42.066;24.742;2022-11-09T04:51:56;63.97;;;34.40;;
20894;SDS011;10607;42.066;24.742;2022-11-09T04:54:22;69.87;;;36.27;;
20894;SDS011;10607;42.066;24.742;2022-11-09T04:56:47;65.63;;;37.90;;
20894;SDS011;10607;42.066;24.742;2022-11-09T04:59:12;77.37;;;38.53;;
20894;SDS011;10607;42.066;24.742;2022-11-09T05:01:37;66.43;;;36.23;;
20894;SDS011;10607;42.066;24.742;2022-11-09T05:04:03;61.43;;;35.90;;
20894;SDS011;10607;42.066;24.742;2022-11-09T05:06:28;69.57;;;37.77;;
20894;SDS011;10607;42.066;24.742;2022-11-09T05:08:57;69.23;;;38.33;;
20894;SDS011;10607;42.066;24.742;2022-11-09T05:11:22;78.17;;;38.23;;
20894;SDS011;10607;42.066;24.742;2022-11-09T05:13:48;58.67;;;36.00;;
20894;SDS011;10607;42.066;24.742;2022-11-09T05:16:13;60.53;;;34.90;;
20894;SDS011;10607;42.066;24.742;2022-11-09T05:18:38;59.30;;;34.27;;
20894;SDS011;10607;42.066;24.742;2022-11-09T05:21:04;56.33;;;33.83;;
20894;SDS011;10607;42.066;24.742;2022-11-09T05:23:29;63.47;;;34.87;;
20894;SDS011;10607;42.066;24.742;2022-11-09T05:26:13;66.83;;;36.63;;
20894;SDS011;10607;42.066;24.742;2022-11-09T05:28:38;70.23;;;36.10;;
20894;SDS011;10607;42.066;24.742;2022-11-09T05:31:04;67.57;;;33.30;;
20894;SDS011;10607;42.066;24.742;2022-11-09T05:33:29;61.70;;;33.70;;
20894;SDS011;10607;42.066;24.742;2022-11-09T05:35:54;65.87;;;31.73;;
20894;SDS011;10607;42.066;24.742;2022-11-09T05:38:20;69.93;;;31.70;;
20894;SDS011;10607;42.066;24.742;2022-11-09T05:40:49;60.07;;;32.03;;
20894;SDS011;10607;42.066;24.742;2022-11-09T05:43:14;60.17;;;31.53;;
20894;SDS011;10607;42.066;24.742;2022-11-09T05:45:40;63.67;;;29.00;;
20894;SDS011;10607;42.066;24.742;2022-11-09T05:48:06;61.67;;;28.40;;
20894;SDS011;10607;42.066;24.742;2022-11-09T05:50:31;56.07;;;28.87;;
20894;SDS011;10607;42.066;24.742;2022-11-09T05:53:02;49.23;;;26.93;;
20894;SDS011;10607;42.066;24.742;2022-11-09T05:55:27;47.80;;;26.07;;
20894;SDS011;10607;42.066;24.742;2022-11-09T05:57:53;54.17;;;25.17;;
20894;SDS011;10607;42.066;24.742;2022-11-09T06:00:18;76.30;;;27.23;;
20894;SDS011;10607;42.066;24.742;2022-11-09T06:02:44;80.00;;;28.27;;
20894;SDS011;10607;42.066;24.742;2022-11-09T06:05:09;82.03;;;29.37;;
20894;SDS011;10607;42.066;24.742;2022-11-09T06:07:34;65.93;;;29.13;;
20894;SDS011;10607;42.066;24.742;2022-11-09T06:10:00;50.30;;;27.00;;
20894;SDS011;10607;42.066;24.742;2022-11-09T06:12:25;59.47;;;27.60;;
20894;SDS011;10607;42.066;24.742;2022-11-09T06:14:50;51.93;;;27.03;;
20894;SDS011;10607;42.066;24.742;2022-11-09T06:17:15;58.40;;;27.47;;
20894;SDS011;10607;42.066;24.742;2022-11-09T06:19:41;52.58;;;27.85;;
20894;SDS011;10607;42.066;24.742;2022-11-09T06:22:06;63.40;;;30.25;;
20894;SDS011;10607;42.066;24.742;2022-11-09T06:24:31;61.50;;;26.17;;
20894;SDS011;10607;42.066;24.742;2022-11-09T06:26:56;63.07;;;29.47;;
20894;SDS011;10607;42.066;24.742;2022-11-09T06:29:22;57.42;;;30.98;;
20894;SDS011;10607;42.066;24.742;2022-11-09T06:31:47;56.15;;;31.38;;
20894;SDS011;10607;42.066;24.742;2022-11-09T06:34:13;58.78;;;30.95;;
20894;SDS011;10607;42.066;24.742;2022-11-09T06:36:38;58.35;;;32.35;;
20894;SDS011;10607;42.066;24.742;2022-11-09T06:39:03;60.92;;;32.72;;
20894;SDS011;10607;42.066;24.742;2022-11-09T06:41:29;58.88;;;30.98;;
20894;SDS011;10607;42.066;24.742;2022-11-09T06:43:54;61.47;;;31.25;;
20894;SDS011;10607;42.066;24.742;2022-11-09T06:46:19;58.72;;;30.42;;
20894;SDS011;10607;42.066;24.742;2022-11-09T06:48:45;62.55;;;31.90;;
20894;SDS011;10607;42.066;24.742;2022-11-09T06:51:10;62.53;;;30.90;;
20894;SDS011;10607;42.066;24.742;2022-11-09T06:53:36;58.50;;;29.80;;
20894;SDS011;10607;42.066;24.742;2022-11-09T06:56:04;59.22;;;32.90;;
20894;SDS011;10607;42.066;24.742;2022-11-09T06:58:30;67.97;;;31.48;;
20894;SDS011;10607;42.066;24.742;2022-11-09T07:00:55;50.83;;;30.08;;
20894;SDS011;10607;42.066;24.742;2022-11-09T07:03:21;69.35;;;34.95;;
20894;SDS011;10607;42.066;24.742;2022-11-09T07:05:47;70.70;;;37.10;;
20894;SDS011;10607;42.066;24.742;2022-11-09T07:08:13;74.75;;;35.28;;
20894;SDS011;10607;42.066;24.742;2022-11-09T07:10:38;69.38;;;35.88;;
20894;SDS011;10607;42.066;24.742;2022-11-09T07:13:04;59.03;;;30.15;;
20894;SDS011;10607;42.066;24.742;2022-11-09T07:15:30;49.05;;;30.30;;
20894;SDS011;10607;42.066;24.742;2022-11-09T07:17:56;67.95;;;28.42;;
20894;SDS011;10607;42.066;24.742;2022-11-09T07:20:21;70.55;;;28.55;;
20894;SDS011;10607;42.066;24.742;2022-11-09T07:22:48;105.75;;;52.67;;
20894;SDS011;10607;42.066;24.742;2022-11-09T07:25:13;78.72;;;41.88;;
20894;SDS011;10607;42.066;24.742;2022-11-09T07:27:38;55.75;;;31.73;;
20894;SDS011;10607;42.066;24.742;2022-11-09T07:30:04;49.25;;;31.20;;
20894;SDS011;10607;42.066;24.742;2022-11-09T07:32:33;51.55;;;29.88;;
20894;SDS011;10607;42.066;24.742;2022-11-09T07:34:58;56.08;;;33.90;;
20894;SDS011;10607;42.066;24.742;2022-11-09T07:37:23;58.30;;;36.45;;
20894;SDS011;10607;42.066;24.742;2022-11-09T07:39:49;61.80;;;38.08;;
20894;SDS011;10607;42.066;24.742;2022-11-09T07:42:14;68.97;;;40.35;;
20894;SDS011;10607;42.066;24.742;2022-11-09T07:44:39;63.85;;;40.85;;
20894;SDS011;10607;42.066;24.742;2022-11-09T07:47:05;61.78;;;39.17;;
20894;SDS011;10607;42.066;24.742;2022-11-09T07:49:30;79.43;;;42.83;;
20894;SDS011;10607;42.066;24.742;2022-11-09T07:51:56;70.63;;;41.28;;
20894;SDS011;10607;42.066;24.742;2022-11-09T07:54:21;68.20;;;42.75;;
20894;SDS011;10607;42.066;24.742;2022-11-09T07:56:46;72.32;;;40.50;;
20894;SDS011;10607;42.066;24.742;2022-11-09T07:59:12;71.38;;;41.03;;
20894;SDS011;10607;42.066;24.742;2022-11-09T08:01:37;67.22;;;39.78;;
20894;SDS011;10607;42.066;24.742;2022-11-09T08:04:02;68.25;;;40.97;;
20894;SDS011;10607;42.066;24.742;2022-11-09T08:06:28;70.18;;;41.22;;
20894;SDS011;10607;42.066;24.742;2022-11-09T08:08:53;77.20;;;40.92;;
20894;SDS011;10607;42.066;24.742;2022-11-09T08:11:19;77.85;;;42.83;;
20894;SDS011;10607;42.066;24.742;2022-11-09T08:13:44;75.07;;;42.30;;
20894;SDS011;10607;42.066;24.742;2022-11-09T08:16:09;77.50;;;44.80;;
20894;SDS011;10607;42.066;24.742;2022-11-09T08:18:35;82.35;;;45.78;;
20894;SDS011;10607;42.066;24.742;2022-11-09T08:21:01;80.65;;;44.45;;
20894;SDS011;10607;42.066;24.742;2022-11-09T08:23:27;77.35;;;43.33;;
20894;SDS011;10607;42.066;24.742;2022-11-09T08:25:52;79.60;;;43.95;;
20894;SDS011;10607;42.066;24.742;2022-11-09T08:28:17;79.40;;;43.97;;
20894;SDS011;10607;42.066;24.742;2022-11-09T08:30:43;87.40;;;47.63;;
20894;SDS011;10607;42.066;24.742;2022-11-09T08:33:09;75.72;;;46.83;;
20894;SDS011;10607;42.066;24.742;2022-11-09T08:35:35;86.18;;;46.20;;
20894;SDS011;10607;42.066;24.742;2022-11-09T08:38:02;78.35;;;45.13;;
20894;SDS011;10607;42.066;24.742;2022-11-09T08:40:28;78.43;;;46.45;;
20894;SDS011;10607;42.066;24.742;2022-11-09T08:42:54;70.05;;;43.72;;
20894;SDS011;10607;42.066;24.742;2022-11-09T08:45:19;67.22;;;41.05;;
20894;SDS011;10607;42.066;24.742;2022-11-09T08:47:45;69.95;;;41.67;;
20894;SDS011;10607;42.066;24.742;2022-11-09T08:50:11;68.03;;;38.75;;
20894;SDS011;10607;42.066;24.742;2022-11-09T08:52:37;62.88;;;38.25;;
20894;SDS011;10607;42.066;24.742;2022-11-09T08:55:02;69.30;;;39.63;;
20894;SDS011;10607;42.066;24.742;2022-11-09T08:57:28;63.53;;;39.55;;
20894;SDS011;10607;42.066;24.742;2022-11-09T08:59:53;66.18;;;36.53;;
20894;SDS011;10607;42.066;24.742;2022-11-09T09:02:18;68.22;;;37.83;;
20894;SDS011;10607;42.066;24.742;2022-11-09T09:04:44;71.45;;;38.13;;
20894;SDS011;10607;42.066;24.742;2022-11-09T09:07:10;72.80;;;37.00;;
20894;SDS011;10607;42.066;24.742;2022-11-09T09:09:36;64.57;;;37.85;;
20894;SDS011;10607;42.066;24.742;2022-11-09T09:12:04;66.43;;;38.88;;
20894;SDS011;10607;42.066;24.742;2022-11-09T09:14:30;68.22;;;38.60;;
20894;SDS011;10607;42.066;24.742;2022-11-09T09:16:55;101.47;;;40.88;;
20894;SDS011;10607;42.066;24.742;2022-11-09T09:19:20;62.20;;;37.58;;
20894;SDS011;10607;42.066;24.742;2022-11-09T09:21:46;68.25;;;39.17;;
20894;SDS011;10607;42.066;24.742;2022-11-09T09:24:11;65.70;;;39.33;;
20894;SDS011;10607;42.066;24.742;2022-11-09T09:26:36;68.38;;;40.63;;
20894;SDS011;10607;42.066;24.742;2022-11-09T09:29:02;71.80;;;41.45;;
20894;SDS011;10607;42.066;24.742;2022-11-09T09:31:27;68.65;;;42.17;;
20894;SDS011;10607;42.066;24.742;2022-11-09T09:33:52;71.78;;;40.00;;
20894;SDS011;10607;42.066;24.742;2022-11-09T09:36:19;70.35;;;40.72;;
20894;SDS011;10607;42.066;24.742;2022-11-09T09:38:44;66.90;;;39.55;;
20894;SDS011;10607;42.066;24.742;2022-11-09T09:41:16;69.32;;;40.38;;
20894;SDS011;10607;42.066;24.742;2022-11-09T09:43:43;69.20;;;39.75;;
20894;SDS011;10607;42.066;24.742;2022-11-09T09:46:33;59.53;;;37.00;;
20894;SDS011;10607;42.066;24.742;2022-11-09T09:48:57;71.68;;;38.40;;
20894;SDS011;10607;42.066;24.742;2022-11-09T09:51:26;68.70;;;39.28;;
20894;SDS011;10607;42.066;24.742;2022-11-09T09:54:02;67.97;;;38.33;;
20894;SDS011;10607;42.066;24.742;2022-11-09T09:56:30;71.60;;;38.17;;
20894;SDS011;10607;42.066;24.742;2022-11-09T10:01:37;63.22;;;37.67;;
20894;SDS011;10607;42.066;24.742;2022-11-09T10:04:02;68.65;;;38.03;;
20894;SDS011;10607;42.066;24.742;2022-11-09T10:06:37;68.50;;;36.45;;
20894;SDS011;10607;42.066;24.742;2022-11-09T10:28:54;50.80;;;32.53;;
20894;SDS011;10607;42.066;24.742;2022-11-09T10:31:22;49.85;;;29.40;;
20894;SDS011;10607;42.066;24.742;2022-11-09T10:33:51;54.58;;;27.98;;
20894;SDS011;10607;42.066;24.742;2022-11-09T10:38:46;48.85;;;28.23;;
20894;SDS011;10607;42.066;24.742;2022-11-09T10:41:33;50.05;;;28.50;;
20894;SDS011;10607;42.066;24.742;2022-11-09T10:43:59;47.47;;;27.02;;
20894;SDS011;10607;42.066;24.742;2022-11-09T10:46:24;52.95;;;26.48;;
20894;SDS011;10607;42.066;24.742;2022-11-09T10:48:50;57.88;;;25.73;;
20894;SDS011;10607;42.066;24.742;2022-11-09T10:51:30;50.15;;;25.10;;
20894;SDS011;10607;42.066;24.742;2022-11-09T10:54:29;43.75;;;25.83;;
20894;SDS011;10607;42.066;24.742;2022-11-09T10:56:48;50.88;;;24.45;;
20894;SDS011;10607;42.066;24.742;2022-11-09T10:59:28;54.55;;;23.70;;
20894;SDS011;10607;42.066;24.742;2022-11-09T11:01:56;48.50;;;24.25;;
20894;SDS011;10607;42.066;24.742;2022-11-09T11:04:23;42.30;;;23.08;;
20894;SDS011;10607;42.066;24.742;2022-11-09T11:06:48;55.60;;;25.27;;
20894;SDS011;10607;42.066;24.742;2022-11-09T11:09:14;44.33;;;23.55;;
20894;SDS011;10607;42.066;24.742;2022-11-09T11:11:40;44.30;;;22.45;;
20894;SDS011;10607;42.066;24.742;2022-11-09T11:16:37;39.80;;;22.73;;
20894;SDS011;10607;42.066;24.742;2022-11-09T11:19:03;35.00;;;20.05;;
20894;SDS011;10607;42.066;24.742;2022-11-09T11:21:29;30.60;;;19.85;;
20894;SDS011;10607;42.066;24.742;2022-11-09T11:24:11;34.53;;;20.67;;
20894;SDS011;10607;42.066;24.742;2022-11-09T11:29:26;37.55;;;19.27;;
20894;SDS011;10607;42.066;24.742;2022-11-09T11:31:52;37.20;;;20.23;;
20894;SDS011;10607;42.066;24.742;2022-11-09T11:34:17;37.05;;;19.40;;
20894;SDS011;10607;42.066;24.742;2022-11-09T11:36:53;42.17;;;20.90;;
20894;SDS011;10607;42.066;24.742;2022-11-09T11:47:17;39.95;;;21.00;;
20894;SDS011;10607;42.066;24.742;2022-11-09T12:00:35;33.72;;;18.38;;
20894;SDS011;10607;42.066;24.742;2022-11-09T12:08:21;37.13;;;20.10;;
20894;SDS011;10607;42.066;24.742;2022-11-09T12:18:51;37.17;;;21.08;;
20894;SDS011;10607;42.066;24.742;2022-11-09T12:21:14;41.60;;;19.73;;
20894;SDS011;10607;42.066;24.742;2022-11-09T12:26:18;36.95;;;19.90;;
20894;SDS011;10607;42.066;24.742;2022-11-09T12:31:40;37.72;;;23.55;;
20894;SDS011;10607;42.066;24.742;2022-11-09T12:36:46;38.15;;;21.48;;
20894;SDS011;10607;42.066;24.742;2022-11-09T12:41:57;41.33;;;24.10;;
20894;SDS011;10607;42.066;24.742;2022-11-09T12:47:14;36.95;;;21.13;;
20894;SDS011;10607;42.066;24.742;2022-11-09T12:49:42;41.35;;;21.58;;
20894;SDS011;10607;42.066;24.742;2022-11-09T12:52:11;33.63;;;21.23;;
20894;SDS011;10607;42.066;24.742;2022-11-09T12:54:38;32.47;;;20.13;;
20894;SDS011;10607;42.066;24.742;2022-11-09T12:57:05;37.72;;;22.52;;
20894;SDS011;10607;42.066;24.742;2022-11-09T12:59:33;44.25;;;22.77;;
20894;SDS011;10607;42.066;24.742;2022-11-09T13:01:59;29.50;;;19.45;;
20894;SDS011;10607;42.066;24.742;2022-11-09T13:04:25;32.28;;;20.15;;
20894;SDS011;10607;42.066;24.742;2022-11-09T13:09:31;35.75;;;20.92;;
20894;SDS011;10607;42.066;24.742;2022-11-09T13:11:57;34.13;;;21.13;;
20894;SDS011;10607;42.066;24.742;2022-11-09T13:30:01;36.17;;;21.20;;
20894;SDS011;10607;42.066;24.742;2022-11-09T13:32:30;39.08;;;21.95;;
20894;SDS011;10607;42.066;24.742;2022-11-09T13:35:00;36.08;;;21.33;;
20894;SDS011;10607;42.066;24.742;2022-11-09T13:37:37;40.63;;;21.38;;
20894;SDS011;10607;42.066;24.742;2022-11-09T13:46:04;39.13;;;21.17;;
20894;SDS011;10607;42.066;24.742;2022-11-09T13:50:55;40.85;;;23.60;;
20894;SDS011;10607;42.066;24.742;2022-11-09T13:55:55;39.45;;;22.42;;
20894;SDS011;10607;42.066;24.742;2022-11-09T13:58:54;36.00;;;22.15;;
20894;SDS011;10607;42.066;24.742;2022-11-09T14:03:49;39.45;;;22.95;;
20894;SDS011;10607;42.066;24.742;2022-11-09T14:06:14;34.42;;;22.33;;
20894;SDS011;10607;42.066;24.742;2022-11-09T14:08:40;39.40;;;23.13;;
20894;SDS011;10607;42.066;24.742;2022-11-09T14:13:45;39.70;;;23.17;;
20894;SDS011;10607;42.066;24.742;2022-11-09T14:18:58;38.97;;;23.10;;
20894;SDS011;10607;42.066;24.742;2022-11-09T14:21:59;36.28;;;22.67;;
20894;SDS011;10607;42.066;24.742;2022-11-09T14:24:21;43.30;;;23.38;;
20894;SDS011;10607;42.066;24.742;2022-11-09T14:27:00;36.38;;;22.50;;
20894;SDS011;10607;42.066;24.742;2022-11-09T14:29:25;51.13;;;31.13;;
20894;SDS011;10607;42.066;24.742;2022-11-09T14:31:51;51.42;;;30.52;;
20894;SDS011;10607;42.066;24.742;2022-11-09T14:34:16;43.30;;;24.17;;
20894;SDS011;10607;42.066;24.742;2022-11-09T14:36:42;47.20;;;24.83;;
20894;SDS011;10607;42.066;24.742;2022-11-09T14:41:45;40.58;;;23.77;;
20894;SDS011;10607;42.066;24.742;2022-11-09T14:44:15;46.50;;;23.90;;
20894;SDS011;10607;42.066;24.742;2022-11-09T14:46:42;37.00;;;22.63;;
20894;SDS011;10607;42.066;24.742;2022-11-09T14:49:08;43.78;;;25.65;;
20894;SDS011;10607;42.066;24.742;2022-11-09T14:51:35;54.95;;;27.70;;
20894;SDS011;10607;42.066;24.742;2022-11-09T14:54:01;54.10;;;24.30;;
20894;SDS011;10607;42.066;24.742;2022-11-09T14:56:29;59.55;;;26.10;;
20894;SDS011;10607;42.066;24.742;2022-11-09T14:58:57;47.50;;;21.92;;
20894;SDS011;10607;42.066;24.742;2022-11-09T15:01:25;49.75;;;25.92;;
20894;SDS011;10607;42.066;24.742;2022-11-09T15:04:10;57.55;;;23.45;;
20894;SDS011;10607;42.066;24.742;2022-11-09T15:06:49;39.47;;;22.77;;
20894;SDS011;10607;42.066;24.742;2022-11-09T15:09:19;47.03;;;24.67;;
20894;SDS011;10607;42.066;24.742;2022-11-09T15:11:45;36.90;;;25.70;;
20894;SDS011;10607;42.066;24.742;2022-11-09T15:16:36;35.17;;;22.35;;
20894;SDS011;10607;42.066;24.742;2022-11-09T15:19:02;36.45;;;26.98;;
20894;SDS011;10607;42.066;24.742;2022-11-09T15:24:12;43.15;;;25.73;;
20894;SDS011;10607;42.066;24.742;2022-11-09T15:26:42;33.25;;;23.58;;
20894;SDS011;10607;42.066;24.742;2022-11-09T15:31:55;44.25;;;24.08;;
20894;SDS011;10607;42.066;24.742;2022-11-09T15:34:22;35.63;;;23.13;;
20894;SDS011;10607;42.066;24.742;2022-11-09T15:36:52;38.78;;;20.55;;
20894;SDS011;10607;42.066;24.742;2022-11-09T15:39:18;32.80;;;21.80;;
20894;SDS011;10607;42.066;24.742;2022-11-09T15:41:43;42.22;;;20.58;;
20894;SDS011;10607;42.066;24.742;2022-11-09T15:44:09;36.75;;;20.85;;
20894;SDS011;10607;42.066;24.742;2022-11-09T15:46:37;37.17;;;20.88;;
20894;SDS011;10607;42.066;24.742;2022-11-09T15:49:14;49.55;;;31.98;;
20894;SDS011;10607;42.066;24.742;2022-11-09T15:51:40;41.20;;;25.02;;
20894;SDS011;10607;42.066;24.742;2022-11-09T15:54:05;38.20;;;22.40;;
20894;SDS011;10607;42.066;24.742;2022-11-09T15:56:31;45.47;;;28.15;;
20894;SDS011;10607;42.066;24.742;2022-11-09T15:58:56;37.78;;;22.33;;
20894;SDS011;10607;42.066;24.742;2022-11-09T16:01:21;37.15;;;21.15;;
20894;SDS011;10607;42.066;24.742;2022-11-09T16:03:47;30.33;;;20.17;;
20894;SDS011;10607;42.066;24.742;2022-11-09T16:06:14;30.80;;;19.77;;
20894;SDS011;10607;42.066;24.742;2022-11-09T16:08:43;35.72;;;20.02;;
20894;SDS011;10607;42.066;24.742;2022-11-09T16:11:10;26.95;;;18.95;;
20894;SDS011;10607;42.066;24.742;2022-11-09T16:13:35;37.92;;;21.20;;
20894;SDS011;10607;42.066;24.742;2022-11-09T16:16:01;38.47;;;20.50;;
20894;SDS011;10607;42.066;24.742;2022-11-09T16:18:27;33.63;;;23.48;;
20894;SDS011;10607;42.066;24.742;2022-11-09T16:20:52;38.65;;;21.67;;